Fernando Martinez

Chefscout - Atletico Venezuela
14 Okt 2027
Donnerstag
Verarbeitung

Persönlichkeit

Anpassungsfähigkeit (16) Ehrgeiz (8) Kontroverse (7) Loyalität (13) Druck (8) Professionalität (9) Fairness (18) Temperament (17)

Profil

Trainerstil Demokratisch
Lizenz Kontinentale B
Entschlossenheit 8
Menschenführung 10
Motivation 3
Disziplin 10
Arbeitszufriedenheit
100%
Ermüdung
0%
Rolle Chefscout
Gehalt 37.5K p/W
Vertrag 14.03.2030

Leistung

Verhalten Gut
Trainingseffektivität
33%
Spielerentwicklung
45%
Verletzungsprävention
25%
Taktische Umsetzung
20%

Letzte Ereignisse

Nahm an einer Scouting-Besprechung teil 7T her
Empfahl ein Transferziel 7T her
Nahm an einer Scouting-Besprechung teil 14T her
Empfahl ein Transferziel 14T her
Nahm an einer Scouting-Besprechung teil 21T her
Empfahl ein Transferziel 21T her
Nahm an einer Scouting-Besprechung teil 28T her
Empfahl ein Transferziel 28T her

Aktuell beobachtet

125
Spieler Verein Status Fähigkeit Vertrauen Beobachtet Zuletzt beobachtet Letzte Stimme
Naygers Flores Deportivo La Guaira Verhandlung 86 / 86 69% 1 01.06.2027 Befürworten
Sergio Carrasco Cobresal Aktiv 98 / 96 40% 1 01.06.2027 -
Sebastián Cocimano Nueva Chicago Aktiv 108 / 110 40% 1 01.06.2027 -
Alexander Díaz Deportivo Riestra Aktiv 114 / 116 40% 1 01.06.2027 -
Louis Appéré Cambridge United Aktiv 93 / 101 40% 1 27.11.2026 -
Matty Stevens AFC Wimbledon Aktiv 105 / 96 40% 1 27.11.2026 -
Lee Bonis Chesterfield Aktiv 95 / 116 40% 2 26.11.2026 -
Jonás Luna Santa Clara Aktiv 118 / 108 40% 1 26.11.2026 -
Edarlyn Reyes Arsenal Tula Aktiv 120 / 120 40% 4 25.11.2026 -
Vyacheslav Grulev Nizhniy Novgorod Aktiv 107 / 112 40% 3 25.11.2026 -
Anderson Gutiérrez Chelyabinsk Aktiv 96 / 97 40% 1 25.11.2026 -
Nathan Ordaz Metalist Aktiv 100 / 104 40% 1 24.11.2026 -
Sonny Perkins Leyton Orient Aktiv 84 / 100 40% 1 24.11.2026 -
Alexis Domínguez Chacarita Juniors Aktiv 106 / 108 40% 2 23.11.2026 -
Fabricio Rojas Gimnasia y Tiro Aktiv 107 / 115 40% 6 23.11.2026 -
Lucio Castillo Colegiales Aktiv 113 / 107 40% 2 21.11.2026 -
Breel Embolo Atlanta United FC Aktiv 147 / 133 40% 5 21.11.2026 -
Marcos Cuenca Zaragoza Aktiv 104 / 122 40% 4 20.11.2026 -
Isaac Matondo Koper Aktiv 98 / 90 40% 1 20.11.2026 -
Sebastián Ybares Neftekhimik Aktiv 92 / 98 40% 1 17.11.2026 -
Mauro Rodrigues Botev Plovdiv Aktiv 107 / 97 40% 1 16.11.2026 -
Ekain Orobengoa Real Sociedad Aktiv 94 / 91 40% 3 14.11.2026 -
Lucas Angelini Temperley Aktiv 120 / 116 40% 1 14.11.2026 -
Gilson Benchimol Akron Aktiv 117 / 113 40% 1 14.11.2026 -
Facundo Pons San Martín Aktiv 121 / 109 40% 1 14.11.2026 -
Alexandr Saplinov Volga Aktiv 99 / 95 40% 1 10.11.2026 -
Johnly Yfeko Exeter City Aktiv 102 / 103 40% 1 10.11.2026 -
Job Ochieng Real Sociedad Aktiv 115 / 94 40% 3 08.11.2026 -
Eduardo Armenta Ufa Aktiv 92 / 91 40% 1 07.11.2026 -
Kenan Dervišagić Floriana Aktiv 108 / 103 40% 2 06.11.2026 -
Axel Pérez NK Domzale Aktiv 96 / 114 40% 1 06.11.2026 -
Fabricio Oviedo Rosario Central Aktiv 100 / 117 40% 1 04.11.2026 -
Stephen Humphrys Bradford City Aktiv 102 / 96 40% 2 03.11.2026 -
Sergio Riffo NK Zavrc Aktiv 104 / 103 40% 3 01.11.2026 -
Kamran Aliev SKA Khabarovsk Aktiv 111 / 106 40% 1 30.10.2026 -
Jhon Flor Sokol Aktiv 78 / 105 40% 1 30.10.2026 -
Rodrigo González Aldosivi Aktiv 125 / 120 40% 1 30.10.2026 -
Juan Manuel Jorge Defensor Sporting Aktiv 109 / 109 40% 1 30.10.2026 -
Julián Palacios Unión de Santa Fe Aktiv 112 / 107 40% 2 29.10.2026 -
Esteven Salguero Patriotas Aktiv 105 / 99 40% 2 28.10.2026 -
Camilo Rey Domenech Boca Juniors Aktiv 113 / 131 40% 1 28.10.2026 -
Marcus Browne AFC Wimbledon Aktiv 112 / 89 40% 2 27.10.2026 -
Mario García Racing Santander Aktiv 114 / 128 40% 2 27.10.2026 -
Lautaro Ríos Banfield Aktiv 110 / 119 40% 1 27.10.2026 -
Luka Kurtovic NK Domzale Aktiv 121 / 113 40% 4 26.10.2026 -
Yeangel Montero Naxxar Lions Aktiv 101 / 118 40% 1 26.10.2026 -
Aldahir Pérez Tijuana Aktiv 102 / 122 40% 1 25.10.2026 -
Mauro Smarra Deportivo Riestra Aktiv 106 / 108 40% 1 24.10.2026 -
Nahuel Gallardo San Martín Aktiv 114 / 105 40% 1 24.10.2026 -
Milton Castagna Neftekhimik Aktiv 104 / 91 40% 1 23.10.2026 -
Sam Nombe Milton Keynes Dons Aktiv 119 / 99 40% 2 21.10.2026 -
Gaspar Duarte Rosario Central Aktiv 114 / 115 40% 2 20.10.2026 -
Robert Murić Floriana Aktiv 101 / 117 40% 1 20.10.2026 -
Diego Valencia Universidad Catolica Aktiv 110 / 105 40% 3 19.10.2026 -
Martin Sekulić Ural Aktiv 116 / 109 40% 3 19.10.2026 -
Milan Tučić ND Gorica Aktiv 95 / 107 40% 1 19.10.2026 -
Gabriel Jesus Barcelona Aktiv 165 / 162 40% 6 18.10.2026 -
Diego Méndez Tacuarembo Aktiv 85 / 87 40% 5 17.10.2026 -
Ángel Stringa Deportivo Riestra Aktiv 98 / 109 40% 4 17.10.2026 -
Facundo Pimienta Atlético Tucumán Aktiv 89 / 101 40% 1 15.10.2026 -
Joaquín Rivero Instituto Aktiv 87 / 92 40% 3 13.10.2026 -
Thiago Ponce Rosario Central Aktiv 97 / 101 40% 1 12.10.2026 -
Ignacio Sabatini Gimnasia y Esgrima Aktiv 100 / 109 40% 1 10.10.2026 -
Gorka Gorosabel Real Sociedad Aktiv 99 / 130 40% 1 09.10.2026 -
Vladimir Khubulov Dinamo Makhachkala Aktiv 104 / 123 40% 1 09.10.2026 -
Manprit Sarkaria Austria Wien Aktiv 126 / 129 40% 1 08.10.2026 -
Luis Rojas Universidad de Concepcion Aktiv 92 / 93 40% 2 02.10.2026 -
Cristhofer Mesías Universidad de Concepcion Aktiv 95 / 109 40% 1 30.09.2026 -
Juan Salas Patronato Aktiv 113 / 117 40% 1 30.09.2026 -
Mariano Bracamonte Deportivo Riestra Aktiv 113 / 116 40% 2 29.09.2026 -
Kyle Joseph Middlesbrough Aktiv 104 / 113 40% 2 26.09.2026 -
Bojan Radulović Huddersfield Town Aktiv 117 / 101 40% 1 25.09.2026 -
Luca Babino Huracán Aktiv 115 / 113 40% 1 25.09.2026 -
Amadou Diawara Leganés Aktiv 112 / 122 40% 1 25.09.2026 -
Carlos Rosel Grodig Aktiv 92 / 98 40% 1 23.09.2026 -
Lautaro Mora Huracán Aktiv 102 / 121 40% 1 23.09.2026 -
Lewis McCann Fleetwood Town Aktiv 98 / 102 40% 1 21.09.2026 -
Lautaro Quiroga Defensa y Justicia Aktiv 97 / 108 40% 1 21.09.2026 -
Alexei Dominguez Pachuca Aktiv 101 / 96 40% 1 17.09.2026 -
Tomás Orqueida Mattersburg Aktiv 108 / 96 40% 1 17.09.2026 -
David Barrero Nizhniy Novgorod Aktiv 95 / 83 40% 1 16.09.2026 -
Duván Mósquera Aguilas Doradas Aktiv 111 / 108 40% 1 16.09.2026 -
Facundo Pérez Juventud Aktiv 96 / 105 40% 1 15.09.2026 -
Lander Astiazarán Real Sociedad Aktiv 113 / 111 40% 1 15.09.2026 -
Galo Galarza Estudiantes Aktiv 91 / 96 40% 1 15.09.2026 -
Juan Román Zarza BK Hacken Aktiv 90 / 88 40% 1 14.09.2026 -
Maximo Ingravidi Colón Aktiv 95 / 113 40% 1 13.09.2026 -
Bruno Hernández Cerro Largo Aktiv 91 / 97 40% 1 11.09.2026 -
Alexis Dulón Huracán Aktiv 87 / 91 40% 1 11.09.2026 -
Tomás Romero Unión de Santa Fe Aktiv 91 / 101 40% 1 11.09.2026 -
Agustín Páez Maipú Aktiv 100 / 92 40% 2 01.09.2026 -
Cristhian Medina Dinamo Brest Aktiv 86 / 88 40% 1 01.09.2026 -
Marcos Camarda Santiago Wanderers Aktiv 100 / 104 40% 4 31.08.2026 -
Agustín Zabaleta Chaco For Ever Aktiv 95 / 88 40% 1 31.08.2026 -
Gonzalo Tapia Palestino Aktiv 100 / 101 40% 1 31.08.2026 -
Agustín Fernández NK Zavrc Aktiv 84 / 92 40% 1 30.08.2026 -
Richard Celis Zamora Aktiv 100 / 117 40% 1 30.08.2026 -
Jandro Orellana Cádiz Aktiv 118 / 104 40% 1 30.08.2026 -
Gonzalo Larrazábal Deportivo Maldonado Aktiv 94 / 90 40% 1 28.08.2026 -
Gonzalo Aguirre Cienciano Aktiv 93 / 96 40% 1 28.08.2026 -
Jeriel De Santis Caracas Aktiv 99 / 95 40% 1 27.08.2026 -
Adalberto Peñaranda Deportivo Tachira Aktiv 113 / 105 40% 2 26.08.2026 -
Martín Garnerone Estudiantes Aktiv 120 / 110 40% 1 26.08.2026 -
Junior Paredes Trujillanos Aktiv 92 / 107 40% 1 25.08.2026 -
Kavier Ortiz Metropolitanos Aktiv 99 / 103 40% 1 25.08.2026 -
Francisco Galván Deportivo Municipal Aktiv 103 / 99 40% 2 18.08.2026 -
Tadeo Polli San Martín Aktiv 92 / 88 40% 1 18.08.2026 -
Tobías Bovone Deportivo Pereira Aktiv 114 / 109 40% 1 16.08.2026 -
Gerónimo Tomasetti Temperley Aktiv 112 / 115 40% 1 16.08.2026 -
Tomás Galván River Plate Aktiv 118 / 115 40% 1 15.08.2026 -
Franco Sivetti Gimnasia y Tiro Aktiv 113 / 102 40% 1 15.08.2026 -
Jules-Anthony Vilsaint Toronto FC Aktiv 106 / 105 40% 1 12.08.2026 -
Ramiro Ruiz Rodríguez Atlético Tucumán Aktiv 125 / 112 40% 1 11.08.2026 -
Bruno Gomes Valletta Aktiv 85 / 108 40% 1 10.08.2026 -
Hakeeb Adelakun Doncaster Rovers Aktiv 98 / 117 40% 1 10.08.2026 -
Joaquín Zappacosta Morón Aktiv 86 / 87 40% 1 09.08.2026 -
Cristian Núñez Huracán Aktiv 107 / 114 40% 1 06.08.2026 -
Jano Franco Independiente Rivadavia Aktiv 92 / 82 40% 1 06.08.2026 -
Jeremy Rafanello Philadelphia Union Aktiv 93 / 101 40% 1 05.08.2026 -
Alassana Jatta Notts County Aktiv 105 / 119 40% 2 04.08.2026 -
Elías Ovelar Dinamo Brest Aktiv 96 / 83 40% 1 04.08.2026 -
Martín Pino Godoy Cruz Aktiv 114 / 106 40% 1 02.08.2026 -
Joe Abrigo Palestino Aktiv 118 / 115 40% 1 02.08.2026 -
David Barbona Defensa y Justicia Aktiv 120 / 113 40% 1 01.08.2026 -
Pablo Durán Celta Aktiv 124 / 122 40% 1 01.08.2026 -